createdAt,value
2022-10-10T09:09:42.820Z,100082.09
2022-10-10T09:12:22.145Z,100075.88
2022-10-10T09:15:02.195Z,100070.91
2022-10-10T09:17:39.942Z,100078.41
2022-10-10T09:20:32.001Z,100067.28
2022-10-10T09:23:05.260Z,100072.44
2022-10-10T09:25:41.305Z,100061.63
2022-10-10T09:28:18.274Z,100063.28
2022-10-10T09:30:54.109Z,100059.88
2022-10-10T09:33:30.731Z,100058.06
2022-10-10T09:36:02.988Z,100063.19
2022-10-10T09:38:40.410Z,100058.09
2022-10-10T09:41:20.606Z,100054.59
2022-10-10T09:43:49.258Z,100046.59
2022-10-10T09:46:17.701Z,100051.34
2022-10-10T09:48:46.097Z,100046.47
2022-10-10T09:51:17.251Z,100049.59
2022-10-10T09:53:47.644Z,100047.13
2022-10-10T09:56:21.439Z,100052.63
2022-10-10T09:58:51.661Z,100046.91
2022-10-10T10:01:23.985Z,100055.28
2022-10-10T10:04:29.034Z,100058.94
2022-10-10T10:07:08.943Z,100062.84
2022-10-10T10:09:37.385Z,100063.25
2022-10-10T10:12:07.453Z,100060.41
2022-10-10T10:14:39.315Z,100065.81
2022-10-10T10:17:11.074Z,100057.38
2022-10-10T10:19:42.414Z,100057.19
2022-10-10T10:22:27.271Z,100058.06
2022-10-10T10:24:56.421Z,100051.75
2022-10-10T10:27:28.590Z,100041.16
2022-10-10T10:29:59.044Z,100060.69
2022-10-10T10:32:49.833Z,100044.44
2022-10-10T10:35:26.327Z,100056.25
2022-10-10T10:38:27.925Z,100064.56
2022-10-10T10:41:06.646Z,100057.91
2022-10-10T10:43:50.064Z,100064.38
2022-10-10T10:46:35.270Z,100048.09
2022-10-10T10:49:11.513Z,100048.38
2022-10-10T10:52:22.333Z,100054.53
2022-10-10T10:55:24.795Z,100061.25
2022-10-10T11:01:44.844Z,100058.38
2022-10-10T11:05:22.860Z,100060.00
2022-10-10T11:08:00.807Z,100057.34
2022-10-10T11:10:40.394Z,100052.53
2022-10-10T11:13:20.801Z,100056.56
2022-10-10T11:16:06.165Z,100055.22
2022-10-10T11:18:43.928Z,100053.34
2022-10-10T11:21:19.456Z,100055.50
2022-10-10T11:23:56.464Z,100042.91
2022-10-10T11:26:29.890Z,100057.09
2022-10-10T11:29:05.662Z,100055.00
2022-10-10T11:31:40.424Z,100051.22
2022-10-10T11:34:18.580Z,100056.31
2022-10-10T11:36:48.171Z,100054.69
2022-10-10T11:39:23.814Z,100039.97
2022-10-10T11:41:59.241Z,100065.66
2022-10-10T11:44:33.206Z,100064.31
2022-10-10T11:47:13.523Z,100072.59
2022-10-10T11:49:53.816Z,100054.94
2022-10-10T11:52:34.020Z,100051.16
2022-10-10T11:55:12.167Z,100048.75
2022-10-10T11:57:47.710Z,100026.25
2022-10-10T12:00:18.327Z,100040.41
2022-10-10T12:02:48.428Z,100046.28
2022-10-10T12:05:25.270Z,100038.78
2022-10-10T12:08:08.984Z,100038.75
2022-10-10T12:10:45.215Z,100040.34
2022-10-10T12:13:29.159Z,100028.03
2022-10-10T12:16:00.740Z,100026.66
2022-10-10T12:18:33.067Z,100016.19
2022-10-10T12:21:09.847Z,100026.09
2022-10-10T12:23:39.057Z,100042.94
2022-10-10T12:26:07.538Z,100020.94
2022-10-10T12:28:38.937Z,100031.63
2022-10-10T12:31:37.615Z,100034.84
2022-10-10T12:34:19.220Z,100030.53
2022-10-10T12:37:22.804Z,100029.44
2022-10-10T12:40:23.303Z,100031.59
2022-10-10T12:43:23.886Z,100024.59
2022-10-10T12:46:09.939Z,100027.25
2022-10-10T12:48:40.859Z,100014.91
2022-10-10T12:51:22.473Z,100020.22
2022-10-10T12:53:57.830Z,100008.66
2022-10-10T12:56:37.929Z,100017.75
2022-10-10T12:59:14.382Z,100018.78
2022-10-10T13:01:48.697Z,100017.19
2022-10-10T13:04:18.781Z,100016.34
2022-10-10T13:06:49.529Z,100012.00
2022-10-10T13:09:23.298Z,100016.81
2022-10-10T13:11:58.202Z,100015.47
2022-10-10T13:14:29.522Z,100011.13
2022-10-10T13:16:58.178Z,100009.78
2022-10-10T13:19:31.830Z,100029.31
2022-10-10T13:22:00.504Z,100028.50
2022-10-10T13:24:33.900Z,100018.31
2022-10-10T13:27:03.103Z,100017.22
2022-10-10T13:29:35.009Z,100014.53
2022-10-10T13:32:08.514Z,100016.66
2022-10-10T13:34:41.307Z,100015.88
2022-10-10T13:37:16.437Z,100014.78
2022-10-10T13:39:47.077Z,100009.13
2022-10-10T13:42:35.457Z,100009.13
2022-10-10T13:45:31.977Z,100010.44
2022-10-10T13:48:22.129Z,100012.84
2022-10-10T13:51:08.427Z,100016.06
2022-10-10T13:53:48.124Z,99995.13
2022-10-10T13:56:25.577Z,100000.97
2022-10-10T13:58:57.439Z,99997.75
2022-10-10T14:01:39.547Z,100007.13
2022-10-10T14:04:22.615Z,100011.09
2022-10-10T14:07:06.027Z,100008.94
2022-10-10T14:09:39.935Z,100003.28
2022-10-10T14:12:18.719Z,100014.53
2022-10-10T14:14:51.696Z,100014.00
2022-10-10T14:17:20.425Z,100012.34
2022-10-10T14:19:50.568Z,100002.38
2022-10-10T14:22:20.277Z,100004.50
2022-10-10T14:24:49.047Z,100002.31
2022-10-10T14:27:26.622Z,99994.78
2022-10-10T14:29:58.303Z,100003.91
2022-10-10T14:32:27.721Z,99993.69
2022-10-10T14:34:56.335Z,100001.47
2022-10-10T14:37:27.756Z,100001.69
2022-10-10T14:39:57.214Z,99999.25
2022-10-10T14:42:28.401Z,99997.34
2022-10-10T14:44:57.103Z,99998.38
2022-10-10T14:47:26.530Z,99999.69
2022-10-10T14:49:57.487Z,100000.22
2022-10-10T14:52:26.197Z,100001.81
2022-10-10T14:54:54.868Z,99994.25
2022-10-10T14:57:23.466Z,99999.34
2022-10-10T14:59:53.475Z,99999.84
2022-10-10T15:02:23.890Z,100000.94
2022-10-10T15:04:52.540Z,100001.47
2022-10-10T15:07:48.379Z,99998.25
2022-10-10T15:10:34.299Z,100002.03
2022-10-10T15:13:03.956Z,99998.25
2022-10-10T15:15:33.734Z,100005.53
2022-10-10T15:18:02.596Z,100004.44
2022-10-10T15:20:33.880Z,100001.75
2022-10-10T15:23:04.858Z,100005.53
2022-10-10T15:25:34.399Z,100005.81
2022-10-10T15:28:04.014Z,100003.13
2022-10-10T15:30:33.806Z,100001.50
2022-10-10T15:33:02.384Z,99996.44
2022-10-10T15:35:44.883Z,100000.22
2022-10-10T15:38:19.155Z,99994.88
2022-10-10T15:40:57.836Z,100002.94
2022-10-10T15:43:26.523Z,100012.41
2022-10-10T15:45:58.665Z,100013.75
2022-10-10T15:48:27.435Z,100008.66
2022-10-10T15:50:55.785Z,100016.22
2022-10-10T15:53:24.179Z,100008.72
2022-10-10T15:55:52.579Z,100020.56
2022-10-10T15:58:21.191Z,100022.72
2022-10-10T16:00:49.632Z,100025.13
2022-10-10T16:03:19.482Z,100026.50
2022-10-10T16:05:47.880Z,100034.03
2022-10-10T16:08:22.860Z,100046.44
2022-10-10T16:10:51.357Z,100035.97
2022-10-10T16:13:19.827Z,100039.50
2022-10-10T16:15:58.199Z,100041.94
2022-10-10T16:18:28.018Z,100034.47
2022-10-10T16:20:59.390Z,100048.97
2022-10-10T16:23:28.608Z,100039.88
2022-10-10T16:26:03.335Z,100044.72
2022-10-10T16:28:32.292Z,100049.59
2022-10-10T16:31:03.916Z,100047.47
2022-10-10T16:33:35.014Z,100055.28
2022-10-10T16:36:09.292Z,100043.50
2022-10-10T16:38:40.028Z,100049.44
2022-10-10T16:41:35.190Z,100047.28
2022-10-10T16:44:02.889Z,100070.41
2022-10-10T16:46:31.498Z,100069.06
2022-10-10T16:49:01.657Z,100062.16
2022-10-10T16:51:31.572Z,100067.53
2022-10-10T16:54:06.400Z,100082.91
2022-10-10T16:56:35.673Z,100078.88
2022-10-10T16:59:05.013Z,100073.78
2022-10-10T17:01:33.548Z,100080.78
2022-10-10T17:04:03.970Z,100079.75
2022-10-10T17:06:37.503Z,100083.53
2022-10-10T17:09:08.489Z,100081.69
2022-10-10T17:11:37.530Z,100076.91
2022-10-10T17:14:06.180Z,100079.84
2022-10-10T17:17:06.848Z,100077.19
2022-10-10T17:19:24.504Z,100083.66
2022-10-10T17:21:53.039Z,100096.00
2022-10-10T17:24:21.419Z,100094.16
2022-10-10T17:26:49.918Z,100086.13
2022-10-10T17:29:18.651Z,100093.91
2022-10-10T17:31:47.236Z,100080.53
2022-10-10T17:34:15.744Z,100091.28
2022-10-10T17:36:45.510Z,100079.47
2022-10-10T17:39:14.015Z,100059.38
2022-10-10T17:41:42.473Z,100069.03
2022-10-10T17:44:11.245Z,100088.34
2022-10-10T17:46:40.446Z,100085.41
2022-10-10T17:49:11.359Z,100085.38
2022-10-10T17:51:41.550Z,100087.56
2022-10-10T17:54:13.472Z,100099.88
2022-10-10T17:56:44.562Z,100094.00
2022-10-10T17:59:13.962Z,100102.84
2022-10-10T18:01:42.423Z,100122.41
2022-10-10T18:04:12.711Z,100144.34
2022-10-10T18:06:41.517Z,100179.16
2022-10-10T18:09:11.711Z,100198.97
2022-10-10T18:11:40.377Z,100201.13
2022-10-10T18:14:09.010Z,100199.22
2022-10-10T18:16:38.025Z,100222.50
2022-10-10T18:19:09.558Z,100195.94
2022-10-10T18:21:38.059Z,100203.47
2022-10-10T18:24:13.735Z,100194.88
2022-10-10T18:26:42.172Z,100175.34
2022-10-10T18:29:10.652Z,100179.09
2022-10-10T18:31:39.751Z,100177.22
2022-10-10T18:34:09.006Z,100189.81
2022-10-10T18:36:39.268Z,100192.47
2022-10-10T18:39:13.338Z,100187.13
2022-10-10T18:41:41.868Z,100207.47
2022-10-10T18:44:14.346Z,100194.06
2022-10-10T18:46:42.864Z,100215.47
2022-10-10T18:49:14.610Z,100198.63
2022-10-10T18:51:44.560Z,100209.31
2022-10-10T18:54:18.642Z,100209.31
2022-10-10T18:56:48.397Z,100226.19
2022-10-10T18:59:21.436Z,100211.22
2022-10-10T19:01:52.537Z,100214.69
2022-10-10T19:04:23.674Z,100207.72
2022-10-10T19:06:57.647Z,100206.13
2022-10-10T19:09:27.907Z,100210.66
2022-10-10T19:11:56.458Z,100206.38
2022-10-10T19:14:25.017Z,100209.06
2022-10-10T19:16:53.409Z,100228.31
2022-10-10T19:19:22.205Z,100246.50
2022-10-10T19:21:51.073Z,100239.81
2022-10-10T19:24:21.502Z,100236.59
2022-10-10T19:26:57.051Z,100241.69
2022-10-10T19:29:27.525Z,100245.41
2022-10-10T19:31:56.254Z,100238.44
2022-10-10T19:34:24.829Z,100232.31
2022-10-10T19:36:53.656Z,100242.22
2022-10-10T19:39:22.056Z,100251.03
2022-10-10T19:41:50.703Z,100261.97
2022-10-10T19:44:20.489Z,100243.25
2022-10-10T19:46:48.892Z,100256.09
2022-10-10T19:49:17.213Z,100263.03
2022-10-10T19:51:45.789Z,100272.94
2022-10-10T19:54:14.202Z,100313.88
2022-10-10T19:56:42.584Z,100322.16
2022-10-10T19:59:10.978Z,100324.03
2022-10-10T20:01:40.800Z,100325.88
2022-10-10T20:04:09.193Z,100331.25
2022-10-10T20:06:37.583Z,100333.38
2022-10-10T20:09:10.386Z,100343.00
2022-10-10T20:11:40.246Z,100336.84
2022-10-10T20:14:08.616Z,100329.91
2022-10-10T20:16:37.132Z,100329.91
2022-10-10T20:19:06.930Z,100325.59
2022-10-10T20:21:36.060Z,100324.00
2022-10-10T20:24:08.100Z,100303.69
2022-10-10T20:26:37.005Z,100325.88
2022-10-10T20:29:06.564Z,100332.03
2022-10-10T20:31:36.923Z,100331.50
2022-10-10T20:34:08.026Z,100328.00
2022-10-10T20:36:37.589Z,100341.63
2022-10-10T20:39:09.118Z,100314.09
2022-10-10T20:41:39.287Z,100345.38
2022-10-10T20:44:09.898Z,100343.75
2022-10-10T20:46:41.959Z,100342.16
2022-10-10T20:49:15.532Z,100354.72
2022-10-10T20:51:48.554Z,100356.59
2022-10-10T20:54:18.530Z,100358.97
2022-10-10T20:56:48.561Z,100369.69
2022-10-10T20:59:17.813Z,100371.56
2022-10-10T21:01:46.691Z,100387.84
2022-10-10T21:04:16.487Z,100387.84
2022-10-10T21:06:45.254Z,100367.78
2022-10-10T21:09:15.984Z,100404.41
2022-10-10T21:11:48.655Z,100391.28
2022-10-10T21:14:20.449Z,100386.44
2022-10-10T21:16:50.669Z,100402.25
2022-10-10T21:19:20.870Z,100377.63
2022-10-10T21:21:49.889Z,100386.97
2022-10-10T21:24:18.823Z,100390.72
2022-10-10T21:26:49.198Z,100396.84
2022-10-10T21:29:18.073Z,100403.53
2022-10-10T21:31:46.753Z,100407.78
2022-10-10T21:34:18.749Z,100404.06
2022-10-10T21:36:48.862Z,100416.06
2022-10-10T21:39:17.412Z,100417.94
2022-10-10T21:41:46.667Z,100419.00
2022-10-10T21:44:16.318Z,100416.03
2022-10-10T21:46:45.644Z,100424.84
2022-10-10T21:49:14.720Z,100401.81
2022-10-10T21:51:46.558Z,100425.34
2022-10-10T21:54:16.554Z,100436.03
2022-10-10T21:56:45.469Z,100435.25
2022-10-10T21:59:14.189Z,100447.25
2022-10-10T22:01:44.275Z,100448.31
2022-10-10T22:04:13.291Z,100445.63
2022-10-10T22:06:41.827Z,100428.00
2022-10-10T22:09:10.510Z,100446.16
2022-10-10T22:11:40.626Z,100456.03
2022-10-10T22:14:09.258Z,100466.97
2022-10-10T22:16:37.915Z,100430.63
2022-10-10T22:19:07.059Z,100453.03
2022-10-10T22:21:36.286Z,100447.13
2022-10-10T22:24:08.567Z,100457.00
2022-10-10T22:26:39.077Z,100462.34
2022-10-10T22:29:07.526Z,100458.88
2022-10-10T22:31:37.910Z,100463.44
2022-10-10T22:34:07.932Z,100454.03
2022-10-10T22:36:36.502Z,100450.56
2022-10-10T22:39:07.313Z,100469.28
2022-10-10T22:41:35.935Z,100462.56
2022-10-10T22:44:06.403Z,100447.09
2022-10-10T22:46:35.208Z,100476.97
2022-10-10T22:49:04.396Z,100484.44
2022-10-10T22:51:32.918Z,100483.13
2022-10-10T22:54:01.377Z,100482.34
2022-10-10T22:56:29.906Z,100483.41
2022-10-10T22:58:58.447Z,100482.59
2022-10-10T23:01:28.535Z,100462.25
2022-10-10T23:04:00.574Z,100485.50
2022-10-10T23:06:29.440Z,100489.78
2022-10-10T23:08:58.237Z,100484.69
2022-10-10T23:11:26.739Z,100491.91
2022-10-10T23:13:55.234Z,100492.97
2022-10-10T23:16:23.721Z,100491.91
2022-10-10T23:18:53.551Z,100487.88
2022-10-10T23:21:22.304Z,100486.81
2022-10-10T23:23:50.852Z,100519.69
2022-10-10T23:26:22.943Z,100501.00
2022-10-10T23:28:51.848Z,100488.94
2022-10-10T23:31:20.402Z,100503.09
2022-10-10T23:33:48.978Z,100483.59
2022-10-10T23:36:18.972Z,100500.44
2022-10-10T23:38:47.686Z,100500.69
2022-10-10T23:41:16.238Z,100515.09
2022-10-10T23:43:44.723Z,100502.28
2022-10-10T23:46:13.996Z,100514.28
2022-10-10T23:48:42.516Z,100512.41
2022-10-10T23:51:11.369Z,100527.66
2022-10-10T23:53:41.216Z,100526.84
2022-10-10T23:56:09.810Z,100512.69
2022-10-10T23:58:38.287Z,100533.78
